Happy Valentine's Day! 

Flight Track Log - Related Links

Times and Time Zones

All times are in EDT time to prevent confusion due to time zone crossing. See the UPS1337 flight status page for this flight to view local times or setup timezone preferences in your user account.


Time Position Orientation Groundspeed Altitude Reporting Facility
EDT Latitude Longitude Course Direction KTS MPH feet Rate Location/Type
Sat 12:08:02 AM 35.8708 -78.8089 225° Southwest 161 185 1,800  Level Washington Center
Sat 12:08:52 AM 35.8450 -78.8411 233° Southwest 171 197 4,200 2,978 Climbing Washington Center
Sat 12:12:34 AM 35.8397 -79.1972 256° West 323 372 15,300 3,085 Climbing Atlanta Center
Sat 12:13:34 AM 35.8356 -79.3028 267° West 336 387 18,700 3,000 Climbing Atlanta Center
Sat 12:14:34 AM 35.8253 -79.4186 264° West 341 392 21,300 2,500 Climbing Atlanta Center
Sat 12:15:34 AM 35.8153 -79.5394 264° West 352 405 23,700 2,300 Climbing Atlanta Center
Sat 12:16:34 AM 35.7961 -79.6456 257° West 358 412 25,900 2,300 Climbing Atlanta Center
Sat 12:17:00 AM 35.7775 -79.7126 256° West  Level FlightAware Approximate
Sat 12:17:34 AM 35.7753 -79.7669 258° West 358 412 28,300  Level Atlanta Center
Sat 12:18:34 AM 35.7544 -79.8908 258° West 358 412 29,600 1,850 Climbing Atlanta Center
Sat 12:19:34 AM 35.7861 -80.0222 287° West 360 414 32,000 1,200 Climbing Atlanta Center
Sat 12:20:34 AM 35.8314 -80.1353 296° West 365 420 32,000  Level Atlanta Center
Sat 12:21:34 AM 35.8744 -80.2433 296° West 359 413 32,000  Level Atlanta Center
Sat 12:22:34 AM 35.9197 -80.3567 296° West 359 413 32,000  Level Atlanta Center
Sat 12:23:34 AM 35.9600 -80.4550 297° West 359 413 32,000  Level Atlanta Center
Sat 12:24:34 AM 36.0028 -80.5608 297° West 354 407 32,000  Level Atlanta Center
Sat 12:25:34 AM 36.0519 -80.6819 297° West 359 413 32,000  Level Atlanta Center
Sat 12:26:34 AM 36.0967 -80.7906 297° West 354 407 32,000  Level Atlanta Center
Sat 12:27:34 AM 36.1392 -80.9019 295° West 359 413 32,000  Level Atlanta Center
Sat 12:28:34 AM 36.1836 -81.0108 297° West 359 413 32,000  Level Atlanta Center
Sat 12:29:34 AM 36.2281 -81.1200 297° West 359 413 32,000  Level Atlanta Center
Sat 12:30:34 AM 36.2703 -81.2342 295° West 359 413 32,000  Level Atlanta Center
Sat 12:31:34 AM 36.3144 -81.3461 296° West 359 413 32,000  Level Atlanta Center
Sat 12:32:34 AM 36.3606 -81.4581 297° West 359 413 32,000  Level Atlanta Center
Sat 12:33:34 AM 36.4069 -81.5725 297° West 359 413 32,000  Level Atlanta Center
Sat 12:34:34 AM 36.4508 -81.6875 295° West 359 413 32,000  Level Atlanta Center
Sat 12:35:34 AM 36.4947 -81.8050 295° West 365 420 32,000  Level Atlanta Center
Sat 12:36:34 AM 36.5383 -81.9172 296° West 365 420 32,000  Level Atlanta Center
Sat 12:37:34 AM 36.5819 -82.0325 295° West 370 426 32,000  Level Atlanta Center
Sat 12:38:34 AM 36.6256 -82.1478 295° West 370 426 32,000  Level Atlanta Center
Sat 12:39:34 AM 36.6711 -82.2658 296° West 370 426 32,000  Level Atlanta Center
Sat 12:40:34 AM 36.7164 -82.3814 296° West 375 432 32,000  Level Atlanta Center
Sat 12:41:51 AM 36.7694 -82.5214 295° West 372 428 32,000  Level Indianapolis Center
Sat 12:42:52 AM 36.8147 -82.6414 295° West 377 434 32,000  Level Indianapolis Center
Sat 12:43:52 AM 36.8583 -82.7578 295° West 376 433 32,000  Level Indianapolis Center
Sat 12:44:53 AM 36.9003 -82.8703 295° West 376 433 32,000  Level Indianapolis Center
Sat 12:45:53 AM 36.9503 -83.0036 295° West 376 433 32,000  Level Indianapolis Center
Sat 12:46:54 AM 36.9936 -83.1203 295° West 373 429 32,000  Level Indianapolis Center
Sat 12:47:54 AM 37.0369 -83.2369 295° West 371 427 32,000  Level Indianapolis Center
Sat 12:48:55 AM 37.0792 -83.3539 294° West 371 427 32,000  Level Indianapolis Center
Sat 12:49:55 AM 37.1211 -83.4689 295° West 369 425 32,000  Level Indianapolis Center
Sat 12:50:56 AM 37.1636 -83.5836 295° West 366 421 32,000  Level Indianapolis Center
Sat 12:51:56 AM 37.2061 -83.7006 295° West 367 422 32,000 -1,000 Level Indianapolis Center
Sat 12:52:56 AM 37.2492 -83.8167 295° West 366 421 30,000 -1,983 Descending Indianapolis Center
Sat 12:53:57 AM 37.2919 -83.9336 295° West 367 422 28,000 -2,033 Descending Indianapolis Center
Sat 12:54:57 AM 37.3347 -84.0542 294° West 373 429 25,900 -2,139 Descending Indianapolis Center
Sat 12:59:14 AM 37.5202 -84.5719 294° West 354 407 16,700 -2,107 Descending FlightAware ADS-B
Sat 01:00:16 AM 37.5547 -84.6687 293° West 337 388 14,700 -1,967 Descending FlightAware ADS-B
Sat 01:01:16 AM 37.5990 -84.7936 294° West 334 384 12,700 -2,019 Descending FlightAware ADS-B
Sat 01:02:03 AM 37.6278 -84.8766 293° West 329 379 11,100 -1,350 Descending FlightAware ADS-B
Sat 01:03:16 AM 37.6843 -84.9944 313° West 336 387 10,000 -493 Descending FlightAware ADS-B
Sat 01:04:17 AM 37.7484 -85.0832 313° West 297 342 10,000 -246 Level FlightAware ADS-B
Sat 01:05:18 AM 37.7999 -85.1541 313° West 258 297 9,500 -744 Descending FlightAware ADS-B
Sat 01:06:18 AM 37.8475 -85.2205 313° West 254 292 8,500 -1,000 Descending FlightAware ADS-B
Sat 01:07:18 AM 37.8948 -85.2857 312° West 254 292 7,500 -1,008 Descending FlightAware ADS-B
Sat 01:08:17 AM 37.9417 -85.3506 312° West 246 283 6,500 -756 Descending FlightAware ADS-B
Sat 01:09:17 AM 37.9867 -85.4139 312° West 240 276 6,000 -250 Descending FlightAware ADS-B
Sat 01:10:17 AM 38.0319 -85.4768 312° West 241 277 6,000  Level FlightAware ADS-B
Sat 01:11:18 AM 38.0775 -85.5407 312° West 241 277 6,000 -545 Level FlightAware ADS-B
Sat 01:12:18 AM 38.1281 -85.5893 339° North 233 268 4,900 -1,008 Descending FlightAware ADS-B
Sat 01:13:17 AM 38.1882 -85.6181 339° North 224 258 4,000 -466 Descending FlightAware ADS-B
Sat 01:14:14 AM 38.2439 -85.6391 345° North 216 249 4,000  Level FlightAware ADS-B
Sat 01:15:17 AM 38.2995 -85.6580 344° North 197 227 4,000 -290 Level FlightAware ADS-B
Sat 01:16:18 AM 38.3448 -85.6876 281° West 171 197 3,400 -690 Descending FlightAware ADS-B
Sat 01:17:10 AM 38.3289 -85.7214 208° Southwest 159 183 2,700 -607 Descending FlightAware ADS-B
Sat 01:17:47 AM 38.3000 -85.7500 208° Southwest 154 177 2,500 -523 Descending Louisville TRACON
Sat 01:20:02 AM 38.2167 -85.7500 180° South 130 150 1,200 -578 Descending Louisville TRACON

Login

Don't have an account? Register now (free) for customized features, flight alerts, and more!